createdAt,value
2019-04-28T00:01:06.453Z,100987.80
2019-04-28T00:03:37.604Z,100985.08
2019-04-28T00:06:10.971Z,100985.48
2019-04-28T00:08:42.901Z,100989.91
2019-04-28T00:11:14.240Z,100976.45
2019-04-28T00:13:45.612Z,100994.17
2019-04-28T00:16:16.898Z,100989.67
2019-04-28T00:18:48.194Z,100994.41
2019-04-28T00:21:38.355Z,100997.95
2019-04-28T00:24:37.626Z,100993.42
2019-04-28T00:27:11.626Z,100998.28
2019-04-28T00:29:46.057Z,100997.48
2019-04-28T00:32:16.066Z,101000.66
2019-04-28T00:34:47.350Z,101001.58
2019-04-28T00:37:31.939Z,100999.34
2019-04-28T00:40:05.029Z,101001.50
2019-04-28T00:42:36.398Z,101004.20
2019-04-28T00:45:09.356Z,101000.98
2019-04-28T00:47:42.764Z,101000.19
2019-04-28T00:50:14.319Z,101008.14
2019-04-28T00:52:45.497Z,101008.22
2019-04-28T00:55:16.662Z,101006.98
2019-04-28T00:57:47.827Z,101001.73
2019-04-28T01:00:21.523Z,101010.70
2019-04-28T01:02:53.713Z,101016.63
2019-04-28T01:05:25.102Z,101004.37
2019-04-28T01:07:56.363Z,101021.29
2019-04-28T01:10:28.074Z,101017.27
2019-04-28T01:12:59.317Z,101021.13
2019-04-28T01:16:09.362Z,101016.67
2019-04-28T01:18:46.250Z,101013.97
2019-04-28T01:21:17.466Z,101011.66
2019-04-28T01:23:50.146Z,101012.81
2019-04-28T01:26:21.611Z,101014.45
2019-04-28T01:28:52.828Z,101008.92
2019-04-28T01:31:49.457Z,101014.09
2019-04-28T01:34:22.499Z,101011.78
2019-04-28T01:36:53.691Z,101016.88
2019-04-28T01:39:24.898Z,101017.20
2019-04-28T01:41:56.092Z,101013.98
2019-04-28T01:44:27.485Z,101012.59
2019-04-28T01:46:59.634Z,101014.22
2019-04-28T01:49:31.562Z,101014.73
2019-04-28T01:52:02.748Z,101017.36
2019-04-28T01:54:33.951Z,101014.53
2019-04-28T01:57:05.183Z,101006.66
2019-04-28T01:59:36.386Z,101014.86
2019-04-28T02:02:07.677Z,101009.60
2019-04-28T02:04:40.156Z,101015.85
2019-04-28T02:07:11.720Z,101018.99
2019-04-28T02:09:42.910Z,101022.94
2019-04-28T02:12:14.109Z,101025.88
2019-04-28T02:14:45.317Z,101027.51
2019-04-28T02:17:16.475Z,101026.83
2019-04-28T02:19:47.668Z,101033.72
2019-04-28T02:22:31.768Z,101033.55
2019-04-28T02:25:03.175Z,101049.14
2019-04-28T02:27:34.456Z,101041.98
2019-04-28T02:30:10.957Z,101044.44
2019-04-28T02:32:41.229Z,101039.19
2019-04-28T02:35:12.478Z,101043.44
2019-04-28T02:37:43.698Z,101045.16
2019-04-28T02:40:14.979Z,101039.91
2019-04-28T02:42:46.220Z,101053.03
2019-04-28T02:45:22.005Z,101051.80
2019-04-28T02:47:56.431Z,101051.80
2019-04-28T02:50:43.912Z,101052.80
2019-04-28T02:53:23.455Z,101048.95
2019-04-28T02:55:54.694Z,101046.92
2019-04-28T02:58:25.846Z,101053.25
2019-04-28T03:01:06.306Z,101056.04
2019-04-28T03:03:30.760Z,101050.30
2019-04-28T03:06:03.249Z,101064.35
2019-04-28T03:08:34.533Z,101059.98
2019-04-28T03:11:06.840Z,101070.56
2019-04-28T03:13:41.090Z,101078.96
2019-04-28T03:16:13.780Z,101073.55
2019-04-28T03:18:45.058Z,101075.66
2019-04-28T03:21:16.410Z,101073.42
2019-04-28T03:23:47.652Z,101080.19
2019-04-28T03:26:34.760Z,101085.45
2019-04-28T03:29:34.155Z,101088.16
2019-04-28T03:32:40.174Z,101088.87
2019-04-28T03:35:03.102Z,101083.45
2019-04-28T03:37:34.180Z,101091.81
2019-04-28T03:40:05.712Z,101090.93
2019-04-28T03:42:36.907Z,101092.24
2019-04-28T03:45:14.539Z,101095.75
2019-04-28T03:47:45.734Z,101093.95
2019-04-28T03:50:17.034Z,101097.50
2019-04-28T03:52:51.014Z,101095.81
2019-04-28T03:55:21.447Z,101104.72
2019-04-28T03:57:52.775Z,101097.06
2019-04-28T04:00:23.914Z,101112.94
2019-04-28T04:02:56.835Z,101118.20
2019-04-28T04:05:30.426Z,101110.63
2019-04-28T04:08:01.129Z,101118.30
2019-04-28T04:10:51.405Z,101117.73
2019-04-28T04:13:32.694Z,101117.73
2019-04-28T04:16:20.793Z,101122.90
2019-04-28T04:18:53.995Z,101117.67
2019-04-28T04:21:26.454Z,101117.41
2019-04-28T04:23:57.707Z,101116.09
2019-04-28T04:26:31.026Z,101116.69
2019-04-28T04:29:01.831Z,101116.69
2019-04-28T04:31:33.015Z,101127.25
2019-04-28T04:34:04.214Z,101129.31
2019-04-28T04:36:35.432Z,101131.64
2019-04-28T04:39:10.604Z,101128.50
2019-04-28T04:41:43.455Z,101131.64
2019-04-28T04:44:13.632Z,101128.50
2019-04-28T04:46:44.824Z,101131.13
2019-04-28T04:49:16.034Z,101138.90
2019-04-28T04:51:47.245Z,101141.04
2019-04-28T04:54:20.448Z,101145.68
2019-04-28T04:56:51.376Z,101151.61
2019-04-28T04:59:22.609Z,101149.80
2019-04-28T05:02:26.736Z,101161.03
2019-04-28T05:04:55.562Z,101164.23
2019-04-28T05:07:26.764Z,101175.16
2019-04-28T05:09:59.539Z,101176.65
2019-04-28T05:12:30.904Z,101180.89
2019-04-28T05:15:02.076Z,101193.53
2019-04-28T05:17:34.379Z,101184.34
2019-04-28T05:20:06.741Z,101191.39
2019-04-28T05:22:43.097Z,101194.42
2019-04-28T05:25:20.428Z,101201.98
2019-04-28T05:27:54.580Z,101203.20
2019-04-28T05:30:24.600Z,101199.36
2019-04-28T05:32:57.325Z,101192.40
2019-04-28T05:35:29.760Z,101178.56
2019-04-28T05:38:00.984Z,101170.47
2019-04-28T05:40:32.203Z,101177.69
2019-04-28T05:43:03.402Z,101167.88
2019-04-28T05:45:34.608Z,101172.91
2019-04-28T05:48:08.752Z,101176.53
2019-04-28T05:50:50.372Z,101199.85
2019-04-28T05:53:36.863Z,101213.90
2019-04-28T05:56:36.164Z,101214.20
2019-04-28T05:59:12.377Z,101226.03
2019-04-28T06:02:01.916Z,101228.78
2019-04-28T06:04:33.162Z,101243.23
2019-04-28T06:07:14.942Z,101244.11
2019-04-28T06:09:50.094Z,101253.20
2019-04-28T06:12:21.613Z,101249.34
2019-04-28T06:14:52.992Z,101251.67
2019-04-28T06:17:24.126Z,101251.36
2019-04-28T06:19:55.312Z,101266.28
2019-04-28T06:22:27.488Z,101260.95
2019-04-28T06:24:58.828Z,101263.48
2019-04-28T06:27:32.567Z,101266.99
2019-04-28T06:30:04.034Z,101272.67
2019-04-28T06:32:35.572Z,101278.23
2019-04-28T06:35:06.797Z,101274.21
2019-04-28T06:37:38.082Z,101285.81
2019-04-28T06:40:09.354Z,101280.03
2019-04-28T06:42:40.632Z,101287.59
2019-04-28T06:45:11.922Z,101290.48
2019-04-28T06:47:43.127Z,101299.38
2019-04-28T06:50:14.501Z,101292.98
2019-04-28T06:52:45.743Z,101293.67
2019-04-28T06:55:17.013Z,101299.80
2019-04-28T06:57:48.237Z,101303.12
2019-04-28T07:00:19.562Z,101302.89
2019-04-28T07:02:50.769Z,101304.98
2019-04-28T07:05:21.950Z,101306.99
2019-04-28T07:07:53.144Z,101305.45
2019-04-28T07:10:24.401Z,101300.28
2019-04-28T07:12:55.657Z,101307.06
2019-04-28T07:15:26.919Z,101303.45
2019-04-28T07:17:58.100Z,101299.38
2019-04-28T07:20:54.313Z,101301.89
2019-04-28T07:23:25.659Z,101295.77
2019-04-28T07:25:57.074Z,101299.17
2019-04-28T07:28:28.293Z,101298.19
2019-04-28T07:30:59.611Z,101287.13
2019-04-28T07:33:36.047Z,101286.17
2019-04-28T07:36:03.830Z,101291.52
2019-04-28T07:38:35.082Z,101284.63
2019-04-28T07:41:06.636Z,101280.04
2019-04-28T07:43:37.794Z,101284.06
2019-04-28T07:46:09.102Z,101286.78
2019-04-28T07:48:40.283Z,101302.09
2019-04-28T07:51:11.483Z,101302.25
2019-04-28T07:54:06.429Z,101308.74
2019-04-28T07:56:37.770Z,101310.46
2019-04-28T07:59:09.095Z,101309.66
2019-04-28T08:01:40.315Z,101323.38
2019-04-28T08:04:11.614Z,101316.25
2019-04-28T08:06:42.879Z,101315.33
2019-04-28T08:09:16.093Z,101318.64
2019-04-28T08:11:47.317Z,101321.44
2019-04-28T08:14:19.864Z,101326.70
2019-04-28T08:16:51.268Z,101334.68
2019-04-28T08:19:22.533Z,101339.70
2019-04-28T08:21:53.745Z,101343.66
2019-04-28T08:24:24.977Z,101346.97
2019-04-28T08:26:56.166Z,101349.05
2019-04-28T08:29:27.317Z,101348.80
2019-04-28T08:32:15.374Z,101355.23
2019-04-28T08:34:46.505Z,101356.06
2019-04-28T08:37:17.710Z,101366.63
2019-04-28T08:39:48.972Z,101357.37
2019-04-28T08:42:20.175Z,101362.70
2019-04-28T08:44:51.434Z,101370.73
2019-04-28T08:47:22.717Z,101370.73
2019-04-28T08:49:54.046Z,101371.50
2019-04-28T08:52:25.254Z,101377.41
2019-04-28T08:54:56.525Z,101374.79
2019-04-28T08:57:28.118Z,101381.69
2019-04-28T08:59:59.347Z,101391.10
2019-04-28T09:02:30.630Z,101390.59
2019-04-28T09:05:01.807Z,101395.13
2019-04-28T09:07:33.120Z,101398.84
2019-04-28T09:10:06.320Z,101396.64
2019-04-28T09:12:37.569Z,101394.02
2019-04-28T09:15:09.127Z,101400.65
2019-04-28T09:17:40.475Z,101396.44
2019-04-28T09:20:11.675Z,101398.75
2019-04-28T09:22:42.939Z,101398.59
2019-04-28T09:25:14.232Z,101401.16
2019-04-28T09:27:45.401Z,101399.26
2019-04-28T09:30:16.801Z,101403.39
2019-04-28T09:32:48.092Z,101403.80
2019-04-28T09:35:19.364Z,101407.50
2019-04-28T09:37:50.659Z,101410.73
2019-04-28T09:40:21.977Z,101407.25
2019-04-28T09:43:14.963Z,101409.81
2019-04-28T09:45:54.974Z,101407.76
2019-04-28T09:48:26.166Z,101403.62
2019-04-28T09:50:57.366Z,101397.75
2019-04-28T09:53:28.638Z,101395.99
2019-04-28T09:55:59.829Z,101394.52
2019-04-28T09:58:31.148Z,101390.11
2019-04-28T10:01:02.501Z,101392.70
2019-04-28T10:03:33.740Z,101396.00
2019-04-28T10:06:05.055Z,101392.62
2019-04-28T10:08:36.724Z,101391.44
2019-04-28T10:11:08.180Z,101382.52
2019-04-28T10:13:39.461Z,101383.38
2019-04-28T10:16:10.661Z,101378.53
2019-04-28T10:18:41.908Z,101370.58
2019-04-28T10:21:13.086Z,101373.73
2019-04-28T10:23:45.824Z,101371.16
2019-04-28T10:26:17.056Z,101377.49
2019-04-28T10:28:48.290Z,101378.48
2019-04-28T10:31:19.532Z,101378.81
2019-04-28T10:33:54.923Z,101380.75
2019-04-28T10:36:27.748Z,101380.88
2019-04-28T10:39:18.988Z,101375.46
2019-04-28T10:41:50.516Z,101381.55
2019-04-28T10:44:22.440Z,101379.42
2019-04-28T10:46:53.623Z,101374.85
2019-04-28T10:49:24.806Z,101374.45
2019-04-28T10:51:59.350Z,101375.42
2019-04-28T10:54:30.025Z,101362.45
2019-04-28T10:57:01.285Z,101367.35
2019-04-28T10:59:32.467Z,101358.76
2019-04-28T11:02:03.642Z,101356.33
2019-04-28T11:04:52.910Z,101355.20
2019-04-28T11:07:24.191Z,101359.23
2019-04-28T11:10:01.285Z,101370.52
2019-04-28T11:12:32.660Z,101361.66
2019-04-28T11:15:05.844Z,101364.59
2019-04-28T11:17:37.090Z,101356.75
2019-04-28T11:20:08.414Z,101359.17
2019-04-28T11:22:39.643Z,101360.78
2019-04-28T11:25:10.902Z,101365.51
2019-04-28T11:27:42.239Z,101363.33
2019-04-28T11:30:14.271Z,101363.79
2019-04-28T11:32:55.903Z,101364.53
2019-04-28T11:35:29.105Z,101369.68
2019-04-28T11:38:00.361Z,101367.81
2019-04-28T11:40:31.672Z,101367.36
2019-04-28T11:43:02.860Z,101376.98
2019-04-28T11:45:34.076Z,101377.16
2019-04-28T11:48:05.276Z,101381.77
2019-04-28T11:50:36.544Z,101381.55
2019-04-28T11:53:07.846Z,101381.45
2019-04-28T11:55:39.085Z,101378.28
2019-04-28T11:58:10.325Z,101373.33
2019-04-28T12:00:41.806Z,101373.62
2019-04-28T12:03:13.193Z,101386.41
2019-04-28T12:05:47.400Z,101390.95
2019-04-28T12:08:18.779Z,101391.52
2019-04-28T12:11:00.767Z,101391.89
2019-04-28T12:13:53.711Z,101395.46
2019-04-28T12:16:36.154Z,101394.80
2019-04-28T12:19:14.596Z,101399.87
2019-04-28T12:21:45.796Z,101392.87
2019-04-28T12:24:17.011Z,101388.16
2019-04-28T12:26:48.241Z,101396.27
2019-04-28T12:29:19.390Z,101393.33
2019-04-28T12:31:50.647Z,101390.80
2019-04-28T12:34:21.944Z,101395.23
2019-04-28T12:36:53.147Z,101393.41
2019-04-28T12:39:24.336Z,101381.77
2019-04-28T12:41:55.584Z,101387.72
2019-04-28T12:44:26.776Z,101392.96
2019-04-28T12:46:57.975Z,101390.04
2019-04-28T12:49:34.166Z,101380.95
2019-04-28T12:52:06.869Z,101385.30
2019-04-28T12:54:39.836Z,101382.16
2019-04-28T12:57:10.992Z,101385.73
2019-04-28T12:59:53.103Z,101385.38
2019-04-28T13:02:42.083Z,101385.17
2019-04-28T13:05:14.414Z,101393.55
2019-04-28T13:07:45.622Z,101386.84
2019-04-28T13:10:16.887Z,101390.50
2019-04-28T13:12:48.118Z,101393.94
2019-04-28T13:15:19.387Z,101400.00
2019-04-28T13:17:50.624Z,101408.92
2019-04-28T13:20:21.868Z,101401.95
2019-04-28T13:22:53.158Z,101415.12
2019-04-28T13:25:24.423Z,101410.72
2019-04-28T13:27:55.681Z,101409.38
2019-04-28T13:30:26.934Z,101415.78
2019-04-28T13:32:58.117Z,101409.09
2019-04-28T13:35:29.353Z,101413.80
2019-04-28T13:38:00.636Z,101417.13
2019-04-28T13:40:34.033Z,101412.95
2019-04-28T13:43:06.418Z,101411.02
2019-04-28T13:45:37.655Z,101422.77
2019-04-28T13:48:08.910Z,101419.81
2019-04-28T13:50:40.172Z,101412.97
2019-04-28T13:53:11.432Z,101413.28
2019-04-28T13:55:59.800Z,101409.66
2019-04-28T13:58:36.532Z,101409.66
2019-04-28T14:01:15.248Z,101410.44
2019-04-28T14:04:05.386Z,101409.41
2019-04-28T14:06:40.650Z,101410.08
2019-04-28T14:09:15.826Z,101410.38
2019-04-28T14:11:47.722Z,101411.66
2019-04-28T14:14:19.029Z,101415.28
2019-04-28T14:16:50.137Z,101405.94
2019-04-28T14:19:21.351Z,101415.63
2019-04-28T14:21:52.531Z,101419.81
2019-04-28T14:24:23.755Z,101414.59
2019-04-28T14:26:54.979Z,101414.59
2019-04-28T14:29:26.296Z,101415.02
2019-04-28T14:31:57.583Z,101413.92
2019-04-28T14:34:28.807Z,101411.51
2019-04-28T14:37:00.029Z,101405.05
2019-04-28T14:39:32.327Z,101402.50
2019-04-28T14:42:03.685Z,101399.62
2019-04-28T14:44:34.970Z,101401.75
2019-04-28T14:47:07.272Z,101406.67
2019-04-28T14:49:38.469Z,101401.11
2019-04-28T14:52:10.330Z,101402.67
2019-04-28T14:54:42.883Z,101406.26
2019-04-28T14:57:13.986Z,101406.51
2019-04-28T14:59:45.179Z,101406.72
2019-04-28T15:02:44.206Z,101404.89
2019-04-28T15:05:43.791Z,101409.67
2019-04-28T15:08:39.861Z,101407.03
2019-04-28T15:11:21.288Z,101414.64
2019-04-28T15:13:55.254Z,101405.02
2019-04-28T15:16:25.380Z,101410.56
2019-04-28T15:18:57.690Z,101413.63
2019-04-28T15:21:28.875Z,101416.89
2019-04-28T15:24:00.101Z,101410.63
2019-04-28T15:26:31.303Z,101408.42
2019-04-28T15:29:02.501Z,101404.88
2019-04-28T15:31:33.775Z,101395.74
2019-04-28T15:34:04.943Z,101403.42
2019-04-28T15:36:36.135Z,101414.91
2019-04-28T15:39:09.200Z,101418.93
2019-04-28T15:41:40.599Z,101418.93
2019-04-28T15:44:11.844Z,101409.38
2019-04-28T15:46:43.189Z,101415.95
2019-04-28T15:49:15.428Z,101422.66
2019-04-28T15:51:46.633Z,101416.01
2019-04-28T15:54:17.853Z,101424.58
2019-04-28T15:56:50.704Z,101421.08
2019-04-28T15:59:23.869Z,101418.81
2019-04-28T16:01:55.141Z,101428.73
2019-04-28T16:04:26.434Z,101433.02
2019-04-28T16:06:57.594Z,101427.88
2019-04-28T16:09:28.792Z,101425.40
2019-04-28T16:11:59.961Z,101424.58
2019-04-28T16:14:31.120Z,101429.19
2019-04-28T16:17:02.332Z,101426.67
2019-04-28T16:19:33.523Z,101432.18
2019-04-28T16:22:04.881Z,101439.53
2019-04-28T16:24:36.212Z,101434.90
2019-04-28T16:27:09.053Z,101436.72
2019-04-28T16:29:40.241Z,101439.87
2019-04-28T16:32:11.504Z,101435.06
2019-04-28T16:34:42.780Z,101439.14
2019-04-28T16:37:13.958Z,101435.98
2019-04-28T16:39:45.184Z,101448.59
2019-04-28T16:42:24.696Z,101442.59
2019-04-28T16:44:59.433Z,101442.98
2019-04-28T16:47:38.709Z,101450.95
2019-04-28T16:50:10.188Z,101446.76
2019-04-28T16:52:41.452Z,101449.84
2019-04-28T16:55:20.269Z,101454.65
2019-04-28T16:58:18.556Z,101453.39
2019-04-28T17:01:08.839Z,101454.97
2019-04-28T17:03:41.735Z,101454.97
2019-04-28T17:06:13.012Z,101467.77
2019-04-28T17:08:44.674Z,101457.40
2019-04-28T17:11:17.190Z,101466.05
2019-04-28T17:13:48.404Z,101459.44
2019-04-28T17:16:19.640Z,101467.59
2019-04-28T17:18:50.825Z,101472.75
2019-04-28T17:21:22.178Z,101477.21
2019-04-28T17:26:36.669Z,101474.22
2019-04-28T17:29:07.900Z,101474.92
2019-04-28T17:31:39.241Z,101478.09
2019-04-28T17:34:10.642Z,101480.13
2019-04-28T17:36:44.356Z,101483.09
2019-04-28T17:39:19.022Z,101484.77
2019-04-28T17:41:50.375Z,101488.84
2019-04-28T17:44:25.532Z,101489.14
2019-04-28T17:46:57.530Z,101484.10
2019-04-28T17:49:33.956Z,101483.34
2019-04-28T17:52:06.425Z,101490.98
2019-04-28T17:54:37.835Z,101493.81
2019-04-28T17:57:09.224Z,101506.39
2019-04-28T17:59:40.462Z,101500.83
2019-04-28T18:02:29.205Z,101507.57
2019-04-28T18:05:26.612Z,101508.00
2019-04-28T18:08:01.619Z,101510.25
2019-04-28T18:10:33.650Z,101521.84
2019-04-28T18:13:05.438Z,101515.32
2019-04-28T18:15:46.957Z,101522.98
2019-04-28T18:18:29.428Z,101521.32
2019-04-28T18:21:00.737Z,101525.92
2019-04-28T18:23:32.324Z,101524.88
2019-04-28T18:26:03.658Z,101521.13
2019-04-28T18:28:35.136Z,101528.44
2019-04-28T18:31:25.511Z,101535.28
2019-04-28T18:34:22.774Z,101538.92
2019-04-28T18:37:04.292Z,101537.81
2019-04-28T18:40:03.955Z,101543.38
2019-04-28T18:43:00.005Z,101544.07
2019-04-28T18:45:31.498Z,101551.81
2019-04-28T18:48:02.765Z,101555.95
2019-04-28T18:50:34.115Z,101560.64
2019-04-28T18:53:05.517Z,101564.38
2019-04-28T18:55:36.883Z,101562.41
2019-04-28T18:58:08.165Z,101576.83
2019-04-28T19:00:41.575Z,101571.75
2019-04-28T19:03:14.183Z,101576.45
2019-04-28T19:05:47.322Z,101581.61
2019-04-28T19:08:49.472Z,101581.44
2019-04-28T19:11:29.724Z,101591.95
2019-04-28T19:14:06.071Z,101590.05
2019-04-28T19:16:56.309Z,101593.81
2019-04-28T19:19:28.789Z,101596.39
2019-04-28T19:22:00.284Z,101602.21
2019-04-28T19:24:31.761Z,101612.14
2019-04-28T19:27:03.088Z,101604.94
2019-04-28T19:29:34.631Z,101619.34
2019-04-28T19:32:06.301Z,101621.92
2019-04-28T19:34:37.782Z,101627.14
2019-04-28T19:37:09.063Z,101623.98
2019-04-28T19:39:40.931Z,101621.27
2019-04-28T19:42:12.393Z,101623.39
2019-04-28T19:44:43.894Z,101622.44
2019-04-28T19:47:15.265Z,101620.53
2019-04-28T19:49:46.869Z,101623.92
2019-04-28T19:52:18.336Z,101624.62
2019-04-28T19:55:23.919Z,101629.80
2019-04-28T19:58:14.431Z,101630.06
2019-04-28T20:01:10.891Z,101634.69
2019-04-28T20:03:42.308Z,101637.59
2019-04-28T20:06:13.613Z,101639.97
2019-04-28T20:08:44.935Z,101630.91
2019-04-28T20:11:16.351Z,101638.25
2019-04-28T20:13:47.678Z,101644.12
2019-04-28T20:16:19.008Z,101639.82
2019-04-28T20:18:50.287Z,101637.87
2019-04-28T20:21:22.655Z,101639.00
2019-04-28T20:23:54.072Z,101642.74
2019-04-28T20:26:25.426Z,101639.76
2019-04-28T20:28:56.699Z,101640.02
2019-04-28T20:31:27.978Z,101646.46
2019-04-28T20:33:59.204Z,101655.11
2019-04-28T20:36:51.870Z,101648.84
2019-04-28T20:39:28.136Z,101652.31
2019-04-28T20:42:18.507Z,101648.24
2019-04-28T20:44:50.266Z,101655.77
2019-04-28T20:47:21.568Z,101659.25
2019-04-28T20:49:52.873Z,101660.56
2019-04-28T20:52:24.131Z,101663.13
2019-04-28T20:54:56.709Z,101669.14
2019-04-28T20:57:30.849Z,101674.66
2019-04-28T21:00:02.250Z,101667.87
2019-04-28T21:02:34.834Z,101675.63
2019-04-28T21:05:06.885Z,101673.08
2019-04-28T21:07:38.293Z,101685.09
2019-04-28T21:10:09.690Z,101676.09
2019-04-28T21:12:41.018Z,101672.97
2019-04-28T21:15:12.712Z,101676.93
2019-04-28T21:17:44.028Z,101678.58
2019-04-28T21:20:15.465Z,101677.25
2019-04-28T21:22:46.734Z,101676.77
2019-04-28T21:25:18.149Z,101678.09
2019-04-28T21:27:49.473Z,101679.41
2019-04-28T21:30:20.809Z,101674.86
2019-04-28T21:32:52.109Z,101672.94
2019-04-28T21:35:23.446Z,101679.46
2019-04-28T21:37:54.769Z,101675.02
2019-04-28T21:40:26.921Z,101679.38
2019-04-28T21:43:20.410Z,101675.74
2019-04-28T21:46:08.615Z,101677.47
2019-04-28T21:48:51.868Z,101680.10
2019-04-28T21:51:23.102Z,101677.70
2019-04-28T21:53:54.348Z,101681.66
2019-04-28T21:56:26.651Z,101678.14
2019-04-28T21:58:57.918Z,101681.09
2019-04-28T22:01:29.282Z,101680.98
2019-04-28T22:04:00.833Z,101682.73
2019-04-28T22:06:32.199Z,101685.38
2019-04-28T22:09:04.962Z,101688.90
2019-04-28T22:11:38.189Z,101688.41
2019-04-28T22:14:09.777Z,101684.30
2019-04-28T22:16:41.197Z,101686.94
2019-04-28T22:19:12.463Z,101689.13
2019-04-28T22:21:43.732Z,101686.33
2019-04-28T22:24:42.888Z,101686.25
2019-04-28T22:27:17.155Z,101688.81
2019-04-28T22:29:48.390Z,101681.53
2019-04-28T22:32:19.854Z,101683.17
2019-04-28T22:34:51.130Z,101686.53
2019-04-28T22:37:22.342Z,101691.60
2019-04-28T22:39:54.704Z,101681.69
2019-04-28T22:42:26.004Z,101682.84
2019-04-28T22:44:57.259Z,101686.20
2019-04-28T22:47:32.724Z,101681.67
2019-04-28T22:50:07.095Z,101676.87
2019-04-28T22:52:39.118Z,101684.23
2019-04-28T22:55:18.956Z,101687.98
2019-04-28T22:57:59.621Z,101684.78
2019-04-28T23:00:49.102Z,101684.09
2019-04-28T23:03:45.472Z,101690.48
2019-04-28T23:06:16.913Z,101693.44
2019-04-28T23:08:48.122Z,101699.38
2019-04-28T23:11:19.437Z,101697.53
2019-04-28T23:13:51.754Z,101696.53
2019-04-28T23:16:23.228Z,101704.44
2019-04-28T23:18:54.521Z,101701.80
2019-04-28T23:21:34.646Z,101704.44
2019-04-28T23:24:06.748Z,101703.95
2019-04-28T23:26:39.257Z,101706.07
2019-04-28T23:29:10.695Z,101706.07
2019-04-28T23:31:42.002Z,101705.59
2019-04-28T23:34:13.342Z,101703.44
2019-04-28T23:36:44.596Z,101710.02
2019-04-28T23:39:15.870Z,101702.87
2019-04-28T23:42:08.733Z,101704.90
2019-04-28T23:44:40.064Z,101708.36
2019-04-28T23:47:11.426Z,101713.03
2019-04-28T23:49:42.617Z,101702.41
2019-04-28T23:52:32.017Z,101706.19
2019-04-28T23:55:04.825Z,101703.86
2019-04-28T23:57:36.069Z,101702.25
